Track Бородулина Ольга

Time Latitude Longitude Accuracy (66% radius in meters) Altitude (meters) Speed (km/hour) Bearing (degrees) Battery (%) GPS flag
08:25:30 60.370984 29.556293 6 77 0 203.94052124023 84 1 delete
08:25:21 60.370972 29.556294 12 72 0 203.94052124023 84 1 delete
08:25:17 60.370960 29.556285 6 75 0 203.94052124023 84 1 delete
08:25:05 60.370954 29.556277 6 78 0 203.94052124023 84 1 delete
08:24:52 60.370921 29.556189 8 84 0 203.94052124023 84 1 delete
08:24:48 60.370935 29.556238 6 82 0 203.94052124023 84 1 delete
08:24:40 60.370980 29.556319 6 81 0 203.94052124023 84 1 delete
08:24:28 60.370969 29.556276 4 86 0 203.94052124023 84 1 delete
08:24:15 60.370975 29.556287 4 85 0 203.94052124023 84 1 delete
08:24:02 60.370962 29.556259 4 90 0 203.94052124023 84 1 delete
08:23:50 60.370971 29.556328 4 85 0 203.94052124023 84 1 delete
08:23:45 60.370975 29.556299 4 82 0 203.94052124023 84 1 delete
08:23:36 60.370944 29.556235 6 95 0 203.94052124023 84 1 delete
08:23:29 60.370939 29.556235 6 92 0 203.94052124023 84 1 delete
08:23:24 60.370917 29.556210 6 83 0 203.94052124023 84 1 delete
08:23:11 60.370881 29.556151 6 81 0 203.94052124023 84 1 delete
08:22:59 60.370904 29.556189 4 78 0 203.94052124023 84 1 delete
08:22:52 60.370922 29.556149 6 81 0 203.94052124023 84 1 delete
08:22:46 60.370948 29.556192 6 80 0 203.94052124023 84 1 delete
08:22:33 60.370961 29.556155 6 84 0 213.35014343262 84 1 delete
08:22:27 60.370967 29.556192 8 85 0 213.35014343262 84 1 delete
08:22:21 60.370974 29.556217 6 80 0 213.35014343262 84 1 delete
08:22:08 60.370977 29.556265 4 78 0 213.35014343262 84 1 delete
08:21:56 60.370967 29.556289 4 82 0 213.35014343262 84 1 delete
08:21:49 60.370956 29.556281 6 78 0 213.35014343262 84 1 delete
08:21:44 60.370936 29.556245 4 78 0 213.35014343262 84 1 delete
08:21:32 60.370915 29.556212 6 76 0 213.35014343262 84 1 delete
08:21:25 60.370914 29.556232 6 79 0 213.35014343262 84 1 delete
08:21:19 60.370925 29.556208 6 78 0 213.35014343262 84 1 delete
08:21:07 60.370946 29.556211 4 81 0 213.35014343262 84 1 delete
08:20:54 60.370977 29.556240 4 78 0 213.35014343262 84 1 delete
08:20:47 60.370960 29.556239 6 74 0 213.35014343262 84 1 delete
08:20:43 60.370932 29.556273 6 73 0 213.35014343262 84 1 delete
08:20:42 60.370923 29.556291 6 69 0 213.35014343262 84 1 delete
08:20:35 60.370879 29.556330 6 61 0 213.35014343262 84 1 delete
08:20:30 60.370911 29.556309 6 63 0 213.35014343262 84 1 delete
08:20:29 60.370922 29.556302 6 64 0 213.35014343262 84 1 delete
08:20:19 60.370975 29.556266 4 75 0 213.35014343262 84 1 delete
08:20:18 60.370973 29.556264 4 74 0 213.35014343262 84 1 delete
08:20:08 60.370929 29.556228 4 74 0 213.35014343262 84 1 delete
08:20:06 60.370910 29.556232 8 75 0 213.35014343262 84 1 delete
08:19:59 60.370907 29.556315 6 65 0 213.35014343262 84 1 delete
08:19:54 60.370935 29.556361 6 58 0 213.35014343262 84 1 delete
08:19:52 60.370951 29.556372 6 59 0 213.35014343262 84 1 delete
08:19:41 60.370996 29.556356 6 72 0 213.35014343262 84 1 delete
08:19:29 60.371002 29.556313 6 85 0 348.01583862305 84 1 delete
08:19:17 60.370972 29.556317 6 91 0 348.01583862305 84 1 delete
08:19:04 60.370968 29.556328 8 82 0 72.77320098877 84 1 delete
08:18:51 60.370988 29.556335 6 78 0 72.77320098877 84 1 delete
08:18:39 60.371001 29.556342 4 81 0 72.77320098877 84 1 delete